メインページ
METAR-TAF:

METAR-TAF

空港 :

エルドレット, ケニヤ

緯度: 00-32N, 経度: 035-17E, 海抜: 2120m

現時点の気象観測

当レポートは32分前の03:00(UTC)に作成
南/南東の風 6kt
気温 12°C
湿度 94%
気圧 1026 hPa
視程10km以上
1,500メートル以下は雲なし、積乱雲なし

METAR: HKEL 210300Z 15006KT CAVOK 12/11 Q1026

時間: 06:32 (03:32 UTC)

予報

当レポートは4時間32分前の23:00(UTC)に作成
予報は21日の 00時(UTC)から 21日の 24時(UTC)まで有効
変向風 5kt
視程10km以上
高度1400ftの雲はほとんどない
高度8000ftの雲は散在している
散在霧
21日の 08時(UTC)から 21日の 11時(UTC)まで徐々に
北西の風 10kt
高度2000ftの雲はほとんどない, 積乱雲.
高度2100ftの千切れ雲あり
21日の 12時(UTC)から 21日の 18時(UTC)まで一時的に
変向風 5kt
高度1800ftの雲はほとんどない, 積乱雲.
高度8000ftの千切れ雲あり
21日の 20時(UTC)から 21日の 23時(UTC)まで徐々に
南/南東の風 5kt
高度1400ftの雲はほとんどない
高度1500ftの雲は散在している

TAF: HKEL 202300Z 2100/2124 VRB05KT 9999 BCFG FEW014 SCT080 BECMG 2108/2111 32010KT FEW020CB BKN021 TEMPO 2112/2118 VRB05KT FEW018CB BKN080 BECMG 2120/2123 15005KT FEW014 SCT015

4,000以上の空港の気象観測と天気予報(METAR報とTAF報)

利用可能な観測所は地図上に黄色い丸と赤い丸で示す。

丸の上にカーソルを重ねると観測所名を参照できる。

次にクリックすると気象観測と天気予報を参照できる。

マップの切り替え:黒色「×」印の緑ボタンをクリックして拡大、「-」印の緑ボタンをクリックして縮小、緑色の三角印をクリックして隣りの地図に切り替え


METAR-TAF: